Aviation Digital Data Service (ADDS)

Output produced by METARs form (0642 UTC 24 March 2019)
found at http://www.aviationweather.gov/metar/data/
 
EBBE 240625Z AUTO 01005KT 9999 OVC041/// 06/04 Q1028 BLU
EBBR 240620Z 01005KT 330V050 9999 BKN048 05/03 Q1029 NOSIG
TAF EBBR 240513Z 2406/2512 02005KT 9999 FEW018 BKN040 
     BECMG 2502/2504 30010KT 
     PROB30 
     TEMPO 2504/2508 SHRA
       
EBCI 240620Z 03006KT 4500 -DZ BKN006 06/05 Q1028 TEMPO 2500 BKN004
TAF EBCI 240513Z 2406/2512 02006KT 8000 SCT007 BKN035 
     PROB40 
     TEMPO 2406/2408 3000 -DZ BR BKN005 
     BECMG 2502/2504 30010KT 
     PROB30 
     TEMPO 2504/2508 SHRA 
       
EBCV 240625Z AUTO 02005KT 9999 OVC039/// 06/04 Q1029 BLU
TAF EBCV 240541Z 2407/2416 02004KT 9999 BKN030 
     BECMG 2411/2413 34007KT SCT035 SCT200 BY EBWM
       
EBAW 240620Z 07003KT CAVOK 04/03 Q1029 NOSIG
TAF EBAW 240515Z 2406/2415 02006KT 9999 FEW020 SCT040
       
EBFS 240625Z AUTO 01006KT 2400 BR BKN003/// 06/05 Q1027 YLO
EBBL 240625Z AUTO 01005KT 9999 SCT048/// 05/03 Q1029 BLU
TAF EBBL 240541Z 2407/2416 01004KT 9999 SCT045 
     BECMG 2409/2411 34005KT
       
EBFN 240625Z AUTO 07004KT 9999 NCD 04/01 Q1029 BLU
TAF EBFN 240541Z 2407/2416 04004KT 9999 SCT070 
     PROB40 
     TEMPO 2407/2740 VRB03KT 7000 
     BECMG 2408/2410 35006KT 
     BECMG 2414/2416 29007KT
       
EBLG 240620Z 05005KT 6000 -RA SCT008 BKN011 06/05 Q1028 NOSIG
TAF EBLG 240513Z 2406/2512 03006KT 6000 BKN007 
     PROB40 
     TEMPO 2406/2409 3000 -DZ BR 
     BECMG 2409/2411 FEW012 SCT025 
     BECMG 2502/2504 29010KT 
     PROB30 
     TEMPO 2504/2509 SHRA 
       
EBOS 240620Z 07005KT 9999 FEW020 04/02 Q1029 NOSIG
TAF EBOS 240513Z 2406/2512 04010KT 9999 FEW013 SCT045 
     BECMG 2412/2414 32010KT 
     BECMG 2500/2502 32016G28KT 
     PROB30 
     TEMPO 2503/2506 SHRA